createdAt,value
2019-04-28T00:04:18.362Z,22.65
2019-04-28T00:09:23.135Z,22.69
2019-04-28T00:14:27.091Z,22.65
2019-04-28T00:19:31.171Z,22.67
2019-04-28T00:24:42.211Z,22.68
2019-04-28T00:29:46.399Z,22.65
2019-04-28T00:34:51.156Z,22.68
2019-04-28T00:39:55.191Z,22.68
2019-04-28T00:44:59.009Z,22.66
2019-04-28T00:50:02.966Z,22.67
2019-04-28T00:55:06.841Z,22.68
2019-04-28T01:00:11.557Z,22.68
2019-04-28T01:05:15.556Z,22.67
2019-04-28T01:10:21.061Z,22.65
2019-04-28T01:15:39.658Z,22.66
2019-04-28T01:20:43.848Z,22.66
2019-04-28T01:25:47.675Z,22.63
2019-04-28T01:31:13.278Z,22.61
2019-04-28T01:36:17.143Z,22.61
2019-04-28T01:41:20.922Z,22.62
2019-04-28T01:46:24.681Z,22.59
2019-04-28T01:51:30.370Z,22.56
2019-04-28T01:56:33.957Z,22.56
2019-04-28T02:01:37.789Z,22.56
2019-04-28T02:06:41.544Z,22.56
2019-04-28T02:11:45.318Z,22.56
2019-04-28T02:16:50.385Z,22.55
2019-04-28T02:22:10.584Z,22.56
2019-04-28T02:27:14.421Z,22.51
2019-04-28T02:32:21.246Z,22.51
2019-04-28T02:37:23.854Z,22.53
2019-04-28T02:42:30.657Z,22.53
2019-04-28T02:47:34.170Z,22.51
2019-04-28T02:52:56.297Z,22.51
2019-04-28T02:58:01.409Z,22.51
2019-04-28T03:03:05.501Z,22.52
2019-04-28T03:08:11.109Z,22.52
2019-04-28T03:13:14.836Z,22.50
2019-04-28T03:18:21.210Z,22.53
2019-04-28T03:23:24.142Z,22.53
2019-04-28T03:28:35.794Z,22.51
2019-04-28T03:33:47.329Z,22.50
2019-04-28T03:38:45.266Z,22.50
2019-04-28T03:43:51.277Z,22.49
2019-04-28T03:48:54.518Z,22.50
2019-04-28T03:54:00.639Z,22.48
2019-04-28T03:59:03.783Z,22.47
2019-04-28T04:04:07.541Z,22.46
2019-04-28T04:09:11.755Z,22.46
2019-04-28T04:14:34.505Z,22.46
2019-04-28T04:19:40.772Z,22.44
2019-04-28T04:24:43.823Z,19.38
2019-04-28T04:29:47.600Z,17.88
2019-04-28T04:34:51.375Z,17.88
2019-04-28T04:39:55.145Z,17.43
2019-04-28T04:45:00.523Z,17.18
2019-04-28T04:50:04.766Z,17.05
2019-04-28T04:55:11.041Z,17.00
2019-04-28T05:00:20.913Z,16.68
2019-04-28T05:05:30.339Z,16.69
2019-04-28T05:10:34.119Z,16.68
2019-04-28T05:15:37.893Z,16.52
2019-04-28T05:20:41.668Z,16.59
2019-04-28T05:25:45.440Z,16.35
2019-04-28T05:30:50.266Z,16.35
2019-04-28T05:35:54.507Z,16.24
2019-04-28T05:41:02.321Z,17.65
2019-04-28T05:46:03.949Z,18.64
2019-04-28T05:51:09.472Z,19.10
2019-04-28T05:56:20.353Z,19.42
2019-04-28T06:01:46.480Z,19.67
2019-04-28T06:06:52.167Z,19.86
2019-04-28T06:11:55.919Z,20.02
2019-04-28T06:17:00.514Z,20.14
2019-04-28T06:22:04.434Z,20.23
2019-04-28T06:27:08.193Z,20.33
2019-04-28T06:32:11.975Z,20.33
2019-04-28T06:37:15.755Z,20.42
2019-04-28T06:42:19.566Z,20.60
2019-04-28T06:47:23.303Z,20.64
2019-04-28T06:52:27.068Z,20.70
2019-04-28T06:57:30.804Z,20.76
2019-04-28T07:02:34.623Z,20.76
2019-04-28T07:07:38.398Z,16.06
2019-04-28T07:12:42.238Z,19.34
2019-04-28T07:17:46.007Z,20.29
2019-04-28T07:22:49.795Z,20.57
2019-04-28T07:27:53.578Z,20.77
2019-04-28T07:32:57.692Z,20.90
2019-04-28T07:38:01.475Z,20.90
2019-04-28T07:43:05.244Z,21.20
2019-04-28T07:48:17.190Z,21.26
2019-04-28T07:53:29.075Z,21.28
2019-04-28T07:58:32.844Z,21.26
2019-04-28T08:03:48.845Z,21.26
2019-04-28T08:08:42.185Z,21.21
2019-04-28T08:13:46.074Z,21.21
2019-04-28T08:18:49.859Z,21.39
2019-04-28T08:23:53.635Z,21.39
2019-04-28T08:28:57.586Z,21.19
2019-04-28T08:34:04.109Z,21.20
2019-04-28T08:39:07.956Z,21.12
2019-04-28T08:44:11.827Z,21.12
2019-04-28T08:49:15.695Z,21.19
2019-04-28T08:54:19.477Z,21.03
2019-04-28T08:59:23.352Z,21.10
2019-04-28T09:04:27.167Z,21.24
2019-04-28T09:09:30.921Z,21.24
2019-04-28T09:14:34.776Z,21.32
2019-04-28T09:19:38.571Z,21.32
2019-04-28T09:24:42.413Z,21.32
2019-04-28T09:29:46.216Z,21.38
2019-04-28T09:34:50.048Z,21.26
2019-04-28T09:39:59.226Z,21.26
2019-04-28T09:45:36.543Z,21.44
2019-04-28T09:50:40.292Z,21.52
2019-04-28T09:55:44.095Z,21.52
2019-04-28T10:00:47.963Z,21.52
2019-04-28T10:05:51.745Z,21.58
2019-04-28T10:10:55.555Z,21.60
2019-04-28T10:15:59.341Z,21.76
2019-04-28T10:21:03.149Z,21.70
2019-04-28T10:26:07.108Z,21.70
2019-04-28T10:31:13.313Z,21.74
2019-04-28T10:36:16.981Z,21.70
2019-04-28T10:41:36.591Z,21.77
2019-04-28T10:46:40.460Z,21.83
2019-04-28T10:51:44.355Z,21.83
2019-04-28T10:56:48.119Z,21.83
2019-04-28T11:01:51.873Z,19.22
2019-04-28T11:06:55.901Z,19.19
2019-04-28T11:12:00.129Z,20.95
2019-04-28T11:17:03.911Z,21.33
2019-04-28T11:22:07.694Z,21.31
2019-04-28T11:27:11.684Z,21.50
2019-04-28T11:32:16.677Z,21.50
2019-04-28T11:37:20.583Z,21.58
2019-04-28T11:42:24.350Z,21.61
2019-04-28T11:47:28.156Z,21.61
2019-04-28T11:52:32.232Z,21.61
2019-04-28T11:57:36.046Z,21.64
2019-04-28T12:02:39.824Z,21.55
2019-04-28T12:07:43.639Z,21.64
2019-04-28T12:13:03.407Z,21.75
2019-04-28T12:18:25.044Z,21.75
2019-04-28T12:28:45.453Z,21.82
2019-04-28T12:33:49.283Z,21.73
2019-04-28T12:38:53.077Z,21.93
2019-04-28T12:43:56.890Z,21.93
2019-04-28T12:49:04.143Z,22.01
2019-04-28T12:54:09.615Z,22.11
2019-04-28T12:59:18.713Z,22.22
2019-04-28T13:04:50.231Z,22.22
2019-04-28T13:09:54.088Z,22.26
2019-04-28T13:14:57.934Z,22.34
2019-04-28T13:20:01.748Z,22.39
2019-04-28T13:25:06.699Z,22.39
2019-04-28T13:30:10.491Z,22.19
2019-04-28T13:35:14.315Z,22.21
2019-04-28T13:40:24.778Z,22.35
2019-04-28T13:45:28.750Z,22.24
2019-04-28T13:50:37.082Z,22.22
2019-04-28T13:56:04.122Z,22.29
2019-04-28T14:01:25.592Z,22.29
2019-04-28T14:06:30.608Z,22.27
2019-04-28T14:11:34.424Z,22.24
2019-04-28T14:16:38.277Z,22.24
2019-04-28T14:21:42.087Z,22.24
2019-04-28T14:26:46.071Z,22.20
2019-04-28T14:31:49.868Z,22.16
2019-04-28T14:36:53.736Z,22.19
2019-04-28T14:41:57.550Z,22.19
2019-04-28T14:47:01.331Z,22.21
2019-04-28T14:52:05.140Z,22.16
2019-04-28T14:57:08.929Z,22.07
2019-04-28T15:02:28.903Z,22.17
2019-04-28T15:07:55.925Z,22.16
2019-04-28T15:13:00.153Z,22.16
2019-04-28T15:18:04.082Z,22.16
2019-04-28T15:23:07.880Z,22.16
2019-04-28T15:28:11.746Z,22.14
2019-04-28T15:33:15.674Z,22.14
2019-04-28T15:38:19.547Z,22.22
2019-04-28T15:43:23.400Z,22.34
2019-04-28T15:48:27.456Z,21.93
2019-04-28T15:53:32.396Z,19.69
2019-04-28T15:58:37.400Z,19.53
2019-04-28T16:03:41.209Z,17.88
2019-04-28T16:08:44.979Z,17.88
2019-04-28T16:13:48.772Z,21.29
2019-04-28T16:18:52.672Z,21.29
2019-04-28T16:23:56.459Z,21.48
2019-04-28T16:29:00.264Z,21.48
2019-04-28T16:34:04.067Z,21.60
2019-04-28T16:39:08.139Z,21.67
2019-04-28T16:44:11.964Z,21.63
2019-04-28T16:49:15.776Z,21.57
2019-04-28T16:54:19.551Z,21.57
2019-04-28T16:59:49.751Z,21.73
2019-04-28T17:04:53.535Z,21.77
2019-04-28T17:09:57.311Z,21.77
2019-04-28T17:15:01.126Z,21.75
2019-04-28T17:20:05.454Z,21.68
2019-04-28T17:25:09.264Z,21.64
2019-04-28T17:30:13.635Z,21.73
2019-04-28T17:35:17.712Z,21.80
2019-04-28T17:40:22.135Z,21.75
2019-04-28T17:45:26.174Z,21.75
2019-04-28T17:50:31.722Z,21.82
2019-04-28T17:55:35.595Z,21.82
2019-04-28T18:00:57.546Z,21.82
2019-04-28T18:06:18.160Z,21.83
2019-04-28T18:11:18.716Z,21.83
2019-04-28T18:16:50.386Z,21.77
2019-04-28T18:21:54.240Z,21.77
2019-04-28T18:26:58.127Z,21.79
2019-04-28T18:32:27.006Z,21.89
2019-04-28T18:37:49.783Z,21.89
2019-04-28T18:43:08.898Z,21.93
2019-04-28T18:48:12.733Z,21.95
2019-04-28T18:53:16.489Z,22.12
2019-04-28T18:58:20.262Z,22.12
2019-04-28T19:03:24.120Z,22.04
2019-04-28T19:08:49.354Z,22.02
2019-04-28T19:13:52.314Z,22.03
2019-04-28T19:18:58.701Z,22.08
2019-04-28T19:24:02.517Z,22.05
2019-04-28T19:29:06.379Z,22.05
2019-04-28T19:34:10.196Z,22.06
2019-04-28T19:39:14.040Z,22.07
2019-04-28T19:44:18.022Z,22.07
2019-04-28T19:49:21.980Z,22.10
2019-04-28T19:54:29.800Z,22.10
2019-04-28T19:59:50.928Z,22.12
2019-04-28T20:04:54.819Z,22.12
2019-04-28T20:09:58.637Z,22.17
2019-04-28T20:15:02.597Z,22.10
2019-04-28T20:20:06.485Z,22.10
2019-04-28T20:25:10.606Z,22.11
2019-04-28T20:30:14.379Z,22.11
2019-04-28T20:35:22.503Z,22.22
2019-04-28T20:40:35.470Z,22.14
2019-04-28T20:45:39.332Z,22.14
2019-04-28T20:50:43.132Z,22.16
2019-04-28T20:55:46.999Z,22.15
2019-04-28T21:00:50.824Z,22.16
2019-04-28T21:05:54.583Z,22.04
2019-04-28T21:10:58.376Z,22.04
2019-04-28T21:16:02.161Z,22.16
2019-04-28T21:21:06.027Z,22.13
2019-04-28T21:26:09.796Z,22.12
2019-04-28T21:31:13.672Z,22.16
2019-04-28T21:36:17.450Z,22.19
2019-04-28T21:41:21.294Z,22.17
2019-04-28T21:46:35.646Z,22.18
2019-04-28T21:51:39.444Z,22.18
2019-04-28T21:56:43.242Z,22.09
2019-04-28T22:01:47.397Z,22.09
2019-04-28T22:06:51.184Z,22.22
2019-04-28T22:11:55.075Z,22.24
2019-04-28T22:16:58.862Z,22.24
2019-04-28T22:22:02.675Z,22.26
2019-04-28T22:27:07.323Z,22.24
2019-04-28T22:32:11.216Z,22.24
2019-04-28T22:37:15.122Z,22.27
2019-04-28T22:42:18.909Z,22.26
2019-04-28T22:47:22.760Z,22.26
2019-04-28T22:52:26.770Z,22.27
2019-04-28T22:57:43.475Z,22.27
2019-04-28T23:02:47.349Z,22.27
2019-04-28T23:07:51.573Z,22.27
2019-04-28T23:12:55.401Z,22.20
2019-04-28T23:17:59.259Z,22.30
2019-04-28T23:23:05.086Z,22.31
2019-04-28T23:28:08.847Z,22.28
2019-04-28T23:33:12.668Z,22.28
2019-04-28T23:38:16.541Z,22.28
2019-04-28T23:43:21.303Z,22.27
2019-04-28T23:48:25.229Z,22.27
2019-04-28T23:53:46.818Z,22.27
2019-04-28T23:58:50.681Z,22.21
